createdAt,value
2023-01-11T00:00:12.373Z,3.46
2023-01-11T00:02:41.462Z,3.26
2023-01-11T00:05:11.972Z,2.85
2023-01-11T00:07:42.017Z,2.80
2023-01-11T00:10:12.216Z,2.80
2023-01-11T00:12:41.725Z,2.83
2023-01-11T00:15:12.631Z,3.03
2023-01-11T00:17:42.635Z,2.72
2023-01-11T00:20:12.599Z,2.94
2023-01-11T00:22:42.366Z,2.41
2023-01-11T00:25:12.141Z,2.41
2023-01-11T00:27:41.878Z,2.26
2023-01-11T00:30:12.098Z,2.17
2023-01-11T00:32:41.917Z,2.27
2023-01-11T00:35:11.799Z,2.12
2023-01-11T00:37:41.594Z,2.04
2023-01-11T00:40:11.799Z,1.96
2023-01-11T00:42:59.225Z,1.93
2023-01-11T00:45:47.433Z,1.87
2023-01-11T00:48:16.938Z,1.97
2023-01-11T00:50:46.782Z,1.60
2023-01-11T00:53:17.953Z,1.65
2023-01-11T00:55:47.755Z,1.55
2023-01-11T00:58:17.416Z,1.55
2023-01-11T01:00:47.257Z,1.25
2023-01-11T01:03:16.834Z,1.12
2023-01-11T01:05:46.605Z,1.14
2023-01-11T01:08:16.325Z,0.76
2023-01-11T01:10:46.093Z,0.77
2023-01-11T01:13:33.299Z,0.75
2023-01-11T01:16:03.097Z,0.60
2023-01-11T01:18:32.925Z,0.54
2023-01-11T01:21:02.971Z,0.41
2023-01-11T01:23:33.037Z,0.41
2023-01-11T01:26:04.990Z,0.30
2023-01-11T01:28:34.936Z,0.43
2023-01-11T01:31:05.813Z,0.24
2023-01-11T01:33:36.474Z,0.21
2023-01-11T01:36:07.175Z,-0.16
2023-01-11T01:38:37.251Z,-0.27
2023-01-11T01:41:07.153Z,-0.22
2023-01-11T01:43:51.949Z,-0.50
2023-01-11T01:46:24.045Z,-0.71
2023-01-11T01:49:09.107Z,-0.68
2023-01-11T01:51:51.056Z,-0.58
2023-01-11T01:54:23.943Z,-0.58
2023-01-11T01:56:56.924Z,-0.59
2023-01-11T01:59:29.477Z,-0.86
2023-01-11T02:02:00.478Z,-0.53
2023-01-11T02:04:36.201Z,-0.55
2023-01-11T02:07:21.523Z,-0.78
2023-01-11T02:09:59.994Z,-0.79
2023-01-11T02:12:35.815Z,-1.07
2023-01-11T02:15:08.237Z,-0.96
2023-01-11T02:17:38.201Z,-1.09
2023-01-11T02:20:22.478Z,-0.99
2023-01-11T02:22:57.863Z,-1.13
2023-01-11T02:25:36.532Z,-1.31
2023-01-11T02:28:25.224Z,-1.28
2023-01-11T02:31:31.700Z,-1.10
2023-01-11T02:34:10.556Z,-1.04
2023-01-11T02:36:46.822Z,-1.11
2023-01-11T02:39:42.379Z,-1.35
2023-01-11T02:43:02.144Z,-1.43
2023-01-11T02:46:03.866Z,-1.22
2023-01-11T02:48:39.302Z,-1.14
2023-01-11T02:51:17.688Z,-1.21
2023-01-11T02:53:59.542Z,-1.21
2023-01-11T02:56:32.352Z,-1.30
2023-01-11T02:59:05.099Z,-1.24
2023-01-11T03:01:36.497Z,-0.72
2023-01-11T03:04:06.416Z,-0.87
2023-01-11T03:06:36.595Z,-0.76
2023-01-11T03:09:27.331Z,-0.85
2023-01-11T03:12:29.364Z,-0.93
2023-01-11T03:15:05.533Z,-0.79
2023-01-11T03:17:47.247Z,-0.47
2023-01-11T03:20:22.892Z,-0.48
2023-01-11T03:23:07.571Z,-0.36
2023-01-11T03:26:02.963Z,-0.33
2023-01-11T03:28:35.758Z,-0.19
2023-01-11T03:31:25.165Z,-0.12
2023-01-11T03:34:15.902Z,-0.32
2023-01-11T03:36:48.417Z,-0.49
2023-01-11T03:39:30.018Z,-0.47
2023-01-11T03:42:02.849Z,-0.56
2023-01-11T03:44:35.968Z,-0.58
2023-01-11T03:47:10.434Z,-0.57
2023-01-11T03:49:46.283Z,-0.28
2023-01-11T03:52:18.837Z,-0.07
2023-01-11T03:54:49.824Z,0.10
2023-01-11T03:57:25.407Z,-0.06
2023-01-11T03:59:55.240Z,-0.17
2023-01-11T04:02:27.505Z,0.07
2023-01-11T04:04:57.348Z,0.23
2023-01-11T04:07:27.126Z,0.34
2023-01-11T04:09:58.476Z,0.32
2023-01-11T04:12:28.296Z,0.39
2023-01-11T04:14:58.383Z,0.16
2023-01-11T04:17:28.183Z,0.05
2023-01-11T04:19:57.963Z,0.14
2023-01-11T04:22:27.725Z,0.13
2023-01-11T04:24:57.495Z,0.02
2023-01-11T04:27:27.276Z,0.21
2023-01-11T04:29:57.061Z,0.06
2023-01-11T04:32:26.878Z,0.34
2023-01-11T04:34:56.719Z,0.36
2023-01-11T04:37:26.481Z,-0.02
2023-01-11T04:39:56.269Z,-0.17
2023-01-11T04:42:26.095Z,-0.13
2023-01-11T04:44:56.247Z,0.19
2023-01-11T04:47:26.535Z,0.16
2023-01-11T04:49:56.277Z,0.03
2023-01-11T04:52:26.037Z,0.08
2023-01-11T04:54:55.857Z,0.01
2023-01-11T04:57:25.671Z,0.30
2023-01-11T04:59:55.467Z,0.07
2023-01-11T05:02:25.278Z,0.24
2023-01-11T05:04:55.033Z,0.18
2023-01-11T05:07:24.486Z,0.19
2023-01-11T05:09:54.227Z,0.40
2023-01-11T05:12:23.757Z,0.42
2023-01-11T05:14:53.584Z,0.37
2023-01-11T05:17:23.034Z,0.14
2023-01-11T05:19:52.818Z,0.26
2023-01-11T05:22:22.639Z,-0.05
2023-01-11T05:24:52.392Z,0.05
2023-01-11T05:27:22.151Z,0.03
2023-01-11T05:29:51.930Z,0.04
2023-01-11T05:32:21.565Z,-0.09
2023-01-11T05:34:51.311Z,0.27
2023-01-11T05:37:20.973Z,0.08
2023-01-11T05:39:50.718Z,-0.06
2023-01-11T05:42:21.988Z,0.02
2023-01-11T05:45:09.946Z,-0.19
2023-01-11T05:47:39.821Z,-0.29
2023-01-11T05:50:10.422Z,-0.02
2023-01-11T05:52:40.308Z,-0.20
2023-01-11T05:55:10.123Z,-0.08
2023-01-11T05:57:44.473Z,-0.21
2023-01-11T06:00:15.353Z,-0.12
2023-01-11T06:02:45.301Z,0.04
2023-01-11T06:05:15.233Z,0.04
2023-01-11T06:07:44.970Z,0.04
2023-01-11T06:10:14.711Z,0.06
2023-01-11T06:12:44.515Z,0.27
2023-01-11T06:15:14.340Z,0.14
2023-01-11T06:17:44.159Z,0.12
2023-01-11T06:20:13.849Z,0.22
2023-01-11T06:22:43.569Z,0.12
2023-01-11T06:25:13.010Z,0.17
2023-01-11T06:27:42.757Z,0.22
2023-01-11T06:30:13.447Z,0.12
2023-01-11T06:32:43.204Z,0.13
2023-01-11T06:35:12.962Z,0.26
2023-01-11T06:37:42.795Z,0.03
2023-01-11T06:40:12.932Z,0.20
2023-01-11T06:42:42.650Z,0.13
2023-01-11T06:45:12.911Z,0.31
2023-01-11T06:47:42.946Z,0.27
2023-01-11T06:50:12.831Z,0.31
2023-01-11T06:52:42.552Z,0.22
2023-01-11T06:55:12.253Z,0.25
2023-01-11T06:57:43.263Z,0.23
2023-01-11T07:00:13.676Z,0.51
2023-01-11T07:02:43.439Z,0.50
2023-01-11T07:05:14.182Z,0.58
2023-01-11T07:07:44.902Z,0.66
2023-01-11T07:10:16.999Z,0.73
2023-01-11T07:12:46.758Z,0.84
2023-01-11T07:15:16.492Z,0.99
2023-01-11T07:17:47.705Z,0.88
2023-01-11T07:20:17.948Z,1.09
2023-01-11T07:22:47.406Z,1.17
2023-01-11T07:25:17.320Z,1.22
2023-01-11T07:27:47.124Z,1.27
2023-01-11T07:30:16.744Z,1.16
2023-01-11T07:32:46.497Z,1.29
2023-01-11T07:35:16.087Z,1.46
2023-01-11T07:37:45.824Z,1.49
2023-01-11T07:40:16.390Z,1.79
2023-01-11T07:43:08.513Z,1.79
2023-01-11T07:45:45.733Z,1.96
2023-01-11T07:48:12.446Z,2.06
2023-01-11T07:50:45.123Z,2.06
2023-01-11T07:53:14.828Z,2.12
2023-01-11T07:55:44.571Z,2.31
2023-01-11T07:58:15.472Z,2.33
2023-01-11T08:00:46.160Z,2.43
2023-01-11T08:03:16.088Z,2.48
2023-01-11T08:05:51.486Z,2.56
2023-01-11T08:08:21.115Z,2.60
2023-01-11T08:11:09.244Z,2.71
2023-01-11T08:13:57.143Z,2.76
2023-01-11T08:16:27.638Z,2.80
2023-01-11T08:18:57.329Z,2.82
2023-01-11T08:21:27.091Z,2.84
2023-01-11T08:23:58.872Z,2.89
2023-01-11T08:26:29.156Z,2.96
2023-01-11T08:28:58.663Z,3.00
2023-01-11T08:31:28.597Z,2.99
2023-01-11T08:33:58.679Z,3.03
2023-01-11T08:36:28.494Z,3.25
2023-01-11T08:38:59.165Z,3.25
2023-01-11T08:41:28.836Z,3.32
2023-01-11T08:43:58.535Z,3.41
2023-01-11T08:46:28.353Z,3.46
2023-01-11T08:48:58.159Z,3.70
2023-01-11T08:51:27.966Z,3.72
2023-01-11T08:53:57.971Z,3.73
2023-01-11T08:56:28.207Z,3.99
2023-01-11T08:58:57.937Z,4.05
2023-01-11T09:01:28.101Z,4.17
2023-01-11T09:03:57.963Z,4.56
2023-01-11T09:06:27.821Z,4.65
2023-01-11T09:08:57.586Z,4.65
2023-01-11T09:11:45.246Z,4.64
2023-01-11T09:14:14.999Z,4.69
2023-01-11T09:16:44.786Z,4.59
2023-01-11T09:19:14.764Z,4.61
2023-01-11T09:21:47.458Z,4.62
2023-01-11T09:24:17.068Z,4.78
2023-01-11T09:26:46.955Z,4.81
2023-01-11T09:29:16.630Z,4.93
2023-01-11T09:31:46.654Z,4.66
2023-01-11T09:34:16.573Z,4.50
2023-01-11T09:36:47.988Z,4.70
2023-01-11T09:39:19.675Z,4.83
2023-01-11T09:42:18.497Z,4.74
2023-01-11T09:44:54.245Z,4.68
2023-01-11T09:47:44.940Z,4.80
2023-01-11T09:50:21.980Z,4.93
2023-01-11T09:53:05.640Z,4.73
2023-01-11T09:55:50.616Z,4.80
2023-01-11T09:58:38.529Z,5.04
2023-01-11T10:01:20.493Z,5.14
2023-01-11T10:04:11.835Z,5.14
2023-01-11T10:07:04.259Z,5.14
2023-01-11T10:18:29.213Z,5.27
2023-01-11T10:18:37.501Z,5.25
2023-01-11T10:20:53.533Z,5.16
2023-01-11T10:23:29.590Z,5.31
2023-01-11T10:26:02.031Z,5.20
2023-01-11T10:28:45.788Z,5.10
2023-01-11T10:31:28.510Z,5.30
2023-01-11T10:34:05.827Z,5.05
2023-01-11T10:36:48.787Z,5.05
2023-01-11T10:39:44.856Z,5.33
2023-01-11T10:42:23.851Z,5.30
2023-01-11T10:45:05.362Z,5.65
2023-01-11T10:47:43.228Z,5.67
2023-01-11T10:50:21.985Z,5.75
2023-01-11T10:53:03.648Z,6.13
2023-01-11T10:55:36.759Z,6.09
2023-01-11T10:58:15.576Z,6.15
2023-01-11T11:00:55.560Z,5.98
2023-01-11T11:03:46.902Z,5.98
2023-01-11T11:06:33.292Z,6.17
2023-01-11T11:09:14.821Z,6.29
2023-01-11T11:11:53.275Z,6.32
2023-01-11T11:14:42.095Z,6.33
2023-01-11T11:17:32.770Z,6.33
2023-01-11T11:20:05.876Z,6.51
2023-01-11T11:22:35.623Z,6.44
2023-01-11T11:25:18.335Z,6.52
2023-01-11T11:27:54.290Z,6.46
2023-01-11T11:30:38.201Z,6.60
2023-01-11T11:33:10.984Z,6.60
2023-01-11T11:35:44.839Z,6.59
2023-01-11T11:38:32.191Z,6.51
2023-01-11T11:41:13.948Z,6.54
2023-01-11T11:43:43.770Z,6.48
2023-01-11T11:46:20.179Z,6.47
2023-01-11T11:49:14.263Z,6.59
2023-01-11T11:51:46.669Z,6.59
2023-01-11T11:54:28.381Z,6.53
2023-01-11T11:57:01.356Z,6.81
2023-01-11T11:59:33.168Z,6.93
2023-01-11T12:02:06.146Z,7.00
2023-01-11T12:04:41.788Z,7.04
2023-01-11T12:07:20.577Z,6.84
2023-01-11T12:09:53.900Z,7.09
2023-01-11T12:12:26.873Z,7.09
2023-01-11T12:15:20.840Z,7.21
2023-01-11T12:17:51.282Z,7.17
2023-01-11T12:20:29.824Z,7.11
2023-01-11T12:23:18.043Z,7.20
2023-01-11T12:25:59.466Z,7.27
2023-01-11T12:28:38.108Z,7.33
2023-01-11T12:31:19.554Z,7.39
2023-01-11T12:33:52.407Z,7.40
2023-01-11T12:36:25.246Z,7.35
2023-01-11T12:39:11.018Z,7.36
2023-01-11T12:42:05.005Z,7.22
2023-01-11T12:44:43.616Z,7.34
2023-01-11T12:47:51.110Z,7.36
2023-01-11T12:50:26.780Z,7.47
2023-01-11T12:53:27.169Z,7.47
2023-01-11T12:56:31.905Z,7.43
2023-01-11T12:59:13.841Z,7.40
2023-01-11T13:02:01.643Z,7.38
2023-01-11T13:05:08.570Z,7.31
2023-01-11T13:07:44.438Z,7.24
2023-01-11T13:10:17.345Z,7.25
2023-01-11T13:12:55.680Z,7.26
2023-01-11T13:15:34.268Z,7.20
2023-01-11T13:18:11.742Z,7.04
2023-01-11T13:21:00.712Z,7.05
2023-01-11T13:23:41.994Z,7.05
2023-01-11T13:26:20.564Z,7.05
2023-01-11T13:29:05.111Z,7.00
2023-01-11T13:31:37.004Z,6.96
2023-01-11T13:34:15.443Z,6.97
2023-01-11T13:36:48.242Z,6.97
2023-01-11T13:39:21.111Z,7.03
2023-01-11T13:41:53.992Z,7.03
2023-01-11T13:44:26.593Z,7.08
2023-01-11T13:47:14.301Z,7.05
2023-01-11T13:49:59.213Z,7.01
2023-01-11T13:52:41.000Z,7.04
2023-01-11T13:55:20.874Z,6.95
2023-01-11T13:57:57.146Z,6.95
2023-01-11T14:00:41.675Z,6.89
2023-01-11T14:03:23.434Z,6.65
2023-01-11T14:06:29.360Z,6.82
2023-01-11T14:09:21.235Z,6.82
2023-01-11T14:12:06.021Z,6.79
2023-01-11T14:14:55.049Z,6.76
2023-01-11T14:17:42.993Z,6.76
2023-01-11T14:20:21.309Z,6.71
2023-01-11T14:23:11.992Z,6.51
2023-01-11T14:25:56.084Z,6.57
2023-01-11T14:28:31.839Z,6.57
2023-01-11T14:31:04.744Z,6.51
2023-01-11T14:34:11.880Z,6.50
2023-01-11T14:37:03.806Z,6.45
2023-01-11T14:40:06.425Z,6.36
2023-01-11T14:43:03.212Z,6.42
2023-01-11T14:45:47.625Z,6.49
2023-01-11T14:48:28.859Z,6.31
2023-01-11T14:51:34.373Z,6.40
2023-01-11T14:54:13.117Z,6.48
2023-01-11T14:56:48.690Z,6.26
2023-01-11T14:59:33.264Z,6.21
2023-01-11T15:02:09.039Z,6.22
2023-01-11T15:04:57.126Z,6.22
2023-01-11T15:07:33.514Z,6.06
2023-01-11T15:10:20.450Z,6.01
2023-01-11T15:12:50.611Z,6.01
2023-01-11T15:15:26.724Z,5.83
2023-01-11T15:18:15.626Z,5.89
2023-01-11T15:20:56.984Z,6.08
2023-01-11T15:23:27.275Z,6.09
2023-01-11T15:26:05.883Z,6.26
2023-01-11T15:28:41.593Z,6.00
2023-01-11T15:31:32.628Z,6.05
2023-01-11T15:34:04.594Z,5.90
2023-01-11T15:36:54.270Z,6.09
2023-01-11T15:39:35.781Z,6.10
2023-01-11T15:42:12.967Z,6.01
2023-01-11T15:44:51.452Z,6.20
2023-01-11T15:47:41.768Z,5.85
2023-01-11T15:50:48.446Z,6.14
2023-01-11T15:53:48.901Z,6.14
2023-01-11T15:56:38.932Z,6.09
2023-01-11T15:59:32.076Z,5.94
2023-01-11T16:02:29.397Z,6.20
2023-01-11T16:05:02.237Z,6.02
2023-01-11T16:07:54.423Z,6.02
2023-01-11T16:10:45.777Z,6.08
2023-01-11T16:13:33.471Z,6.18
2023-01-11T16:16:06.364Z,6.20
2023-01-11T16:18:42.197Z,6.17
2023-01-11T16:21:18.062Z,6.17
2023-01-11T16:23:47.847Z,5.91
2023-01-11T16:26:20.928Z,5.94
2023-01-11T16:28:59.355Z,6.28
2023-01-11T16:31:32.228Z,6.17
2023-01-11T16:34:09.733Z,6.06
2023-01-11T16:36:42.032Z,6.22
2023-01-11T16:39:14.472Z,6.17
2023-01-11T16:41:51.033Z,6.18
2023-01-11T16:44:33.202Z,6.14
2023-01-11T16:47:14.476Z,6.04
2023-01-11T16:49:49.612Z,5.94
2023-01-11T16:52:38.029Z,5.90
2023-01-11T16:55:22.374Z,6.10
2023-01-11T16:57:55.622Z,6.04
2023-01-11T17:00:30.448Z,5.99
2023-01-11T17:03:18.487Z,5.93
2023-01-11T17:06:07.647Z,5.75
2023-01-11T17:08:42.845Z,5.97
2023-01-11T17:11:33.186Z,5.98
2023-01-11T17:14:27.064Z,5.93
2023-01-11T17:17:00.412Z,5.79
2023-01-11T17:19:32.859Z,5.89
2023-01-11T17:22:08.618Z,5.94
2023-01-11T17:24:44.567Z,5.92
2023-01-11T17:27:24.106Z,5.89
2023-01-11T17:29:56.863Z,5.80
2023-01-11T17:32:36.625Z,5.80
2023-01-11T17:35:09.457Z,5.74
2023-01-11T17:37:39.849Z,5.80
2023-01-11T17:40:27.669Z,5.75
2023-01-11T17:43:21.097Z,5.71
2023-01-11T17:45:59.514Z,5.77
2023-01-11T17:48:30.255Z,5.77
2023-01-11T17:51:01.897Z,6.11
2023-01-11T17:53:37.391Z,6.20
2023-01-11T17:56:09.417Z,6.35
2023-01-11T17:58:39.923Z,6.06
2023-01-11T18:01:16.413Z,5.90
2023-01-11T18:03:57.062Z,5.85
2023-01-11T18:06:32.905Z,5.83
2023-01-11T18:09:05.669Z,5.95
2023-01-11T18:11:38.436Z,5.95
2023-01-11T18:14:11.313Z,6.08
2023-01-11T18:16:59.006Z,6.10
2023-01-11T18:19:34.704Z,6.28
2023-01-11T18:22:07.373Z,5.87
2023-01-11T18:24:40.546Z,5.65
2023-01-11T18:27:27.542Z,6.18
2023-01-11T18:30:01.295Z,6.18
2023-01-11T18:32:36.897Z,6.11
2023-01-11T18:35:09.948Z,5.87
2023-01-11T18:37:39.697Z,5.81
2023-01-11T18:40:14.859Z,6.10
2023-01-11T18:42:53.130Z,5.78
2023-01-11T18:45:24.485Z,5.95
2023-01-11T18:47:54.036Z,6.13
2023-01-11T18:52:52.326Z,6.45
2023-01-11T18:55:22.127Z,6.49
2023-01-11T18:57:51.934Z,6.56
2023-01-11T19:00:21.906Z,6.58
2023-01-11T19:05:22.056Z,6.67
2023-01-11T19:07:51.952Z,6.66
2023-01-11T19:10:23.410Z,6.70
2023-01-11T19:12:53.256Z,6.65
2023-01-11T19:15:22.942Z,6.74
2023-01-11T19:17:52.714Z,6.74
2023-01-11T19:20:22.289Z,6.64
2023-01-11T19:22:52.253Z,6.64
2023-01-11T19:25:21.763Z,6.75
2023-01-11T19:27:53.463Z,6.77
2023-01-11T19:30:22.378Z,6.62
2023-01-11T19:32:53.998Z,6.51
2023-01-11T19:35:23.676Z,6.50
2023-01-11T19:37:53.211Z,6.63
2023-01-11T19:40:23.022Z,6.45
2023-01-11T19:42:52.839Z,6.45
2023-01-11T19:45:22.423Z,6.45
2023-01-11T19:47:52.586Z,6.45
2023-01-11T19:50:22.391Z,6.34
2023-01-11T19:52:52.138Z,6.15
2023-01-11T19:55:22.251Z,6.14
2023-01-11T19:57:52.023Z,6.08
2023-01-11T20:00:21.724Z,6.06
2023-01-11T20:02:51.975Z,5.93
2023-01-11T20:05:21.695Z,5.95
2023-01-11T20:07:51.512Z,5.90
2023-01-11T20:10:21.420Z,5.86
2023-01-11T20:12:51.200Z,5.83
2023-01-11T20:15:21.368Z,5.80
2023-01-11T20:17:51.474Z,5.75
2023-01-11T20:20:21.293Z,5.86
2023-01-11T20:22:51.157Z,5.84
2023-01-11T20:25:20.824Z,5.81
2023-01-11T20:27:50.565Z,5.81
2023-01-11T20:30:20.343Z,5.83
2023-01-11T20:32:50.191Z,5.67
2023-01-11T20:35:19.739Z,5.67
2023-01-11T20:37:49.509Z,5.64
2023-01-11T20:40:19.418Z,5.73
2023-01-11T20:42:49.120Z,5.73
2023-01-11T20:45:19.009Z,5.57
2023-01-11T20:47:48.860Z,5.69
2023-01-11T20:50:18.549Z,5.50
2023-01-11T20:52:50.325Z,5.50
2023-01-11T20:55:20.118Z,5.72
2023-01-11T20:57:51.436Z,5.58
2023-01-11T21:00:21.767Z,5.63
2023-01-11T21:02:52.935Z,5.34
2023-01-11T21:05:22.492Z,5.41
2023-01-11T21:07:54.318Z,5.45
2023-01-11T21:10:26.211Z,5.58
2023-01-11T21:12:57.656Z,5.63
2023-01-11T21:15:27.129Z,5.49
2023-01-11T21:17:56.900Z,5.58
2023-01-11T21:20:26.756Z,5.56
2023-01-11T21:22:56.855Z,5.45
2023-01-11T21:25:27.000Z,5.56
2023-01-11T21:27:57.606Z,5.66
2023-01-11T21:30:27.108Z,5.63
2023-01-11T21:32:57.228Z,5.63
2023-01-11T21:35:27.252Z,5.65
2023-01-11T21:37:57.024Z,5.64
2023-01-11T21:40:26.875Z,5.65
2023-01-11T21:42:59.449Z,5.67
2023-01-11T21:45:29.200Z,5.59
2023-01-11T21:47:59.059Z,5.66
2023-01-11T21:50:28.799Z,5.55
2023-01-11T21:52:59.239Z,5.43
2023-01-11T21:55:28.786Z,5.59
2023-01-11T21:57:58.566Z,5.56
2023-01-11T22:00:29.976Z,5.63
2023-01-11T22:02:59.886Z,5.55
2023-01-11T22:05:31.314Z,5.75
2023-01-11T22:08:01.085Z,5.50
2023-01-11T22:10:30.908Z,5.73
2023-01-11T22:13:01.195Z,5.78
2023-01-11T22:15:30.912Z,5.67
2023-01-11T22:18:00.651Z,5.56
2023-01-11T22:20:30.441Z,5.79
2023-01-11T22:23:00.183Z,5.79
2023-01-11T22:25:30.103Z,5.71
2023-01-11T22:27:59.810Z,5.79
2023-01-11T22:30:29.584Z,5.76
2023-01-11T22:33:00.705Z,5.76
2023-01-11T22:35:31.135Z,5.89
2023-01-11T22:38:01.434Z,5.83
2023-01-11T22:40:31.011Z,5.85
2023-01-11T22:43:00.760Z,5.74
2023-01-11T22:45:30.624Z,5.86
2023-01-11T22:48:00.463Z,5.87
2023-01-11T22:50:30.235Z,5.93
2023-01-11T22:53:00.530Z,5.87
2023-01-11T22:55:30.286Z,5.80
2023-01-11T22:58:00.064Z,5.91
2023-01-11T23:00:29.982Z,5.90
2023-01-11T23:02:59.766Z,5.78
2023-01-11T23:05:29.591Z,5.70
2023-01-11T23:07:59.542Z,5.83
2023-01-11T23:10:29.578Z,5.64
2023-01-11T23:13:17.243Z,5.64
2023-01-11T23:15:48.522Z,5.71
2023-01-11T23:18:18.353Z,5.71
2023-01-11T23:20:48.370Z,5.70
2023-01-11T23:23:17.809Z,5.58
2023-01-11T23:25:47.584Z,5.83
2023-01-11T23:28:17.151Z,5.69
2023-01-11T23:30:46.926Z,5.85
2023-01-11T23:33:16.664Z,5.85
2023-01-11T23:35:47.947Z,5.77
2023-01-11T23:38:17.420Z,6.08
2023-01-11T23:41:05.015Z,5.94
2023-01-11T23:43:39.277Z,6.03
2023-01-11T23:46:26.828Z,6.03
2023-01-11T23:48:56.606Z,5.94
2023-01-11T23:51:26.372Z,5.82
2023-01-11T23:53:58.684Z,6.06
2023-01-11T23:56:30.816Z,6.00
2023-01-11T23:59:00.627Z,6.06
